Time;durP1;ratioP1;P1;durP2;ratioP2;P2;SDS_P1;SDS_P2;PMS_P1;PMS_P2;Temp;Humidity;BMP_temperature;BMP_pressure;BME280_temperature;BME280_humidity;BME280_pressure;Samples;Min_cycle;Max_cycle;Signal;HPM_P1;HPM_P2
2022/02/22 00:00:07;;;;;;;5.70;1.70;;;;;;;3.06;100.00;95730.50;5053975;28;24981;-74
2022/02/22 00:02:33;;;;;;;6.97;2.00;;;;;;;3.03;100.00;95737.44;5054032;28;25018;-73
2022/02/22 00:05:01;;;;;;;8.50;1.98;;;;;;;3.03;100.00;95733.16;5054084;28;24510;-73
2022/02/22 00:07:27;;;;;;;4.22;1.70;;;;;;;2.99;100.00;95752.06;5053592;28;24422;-72
2022/02/22 00:09:55;;;;;;;6.90;2.33;;;;;;;2.96;100.00;95744.47;5054153;28;24430;-74
2022/02/22 00:12:22;;;;;;;4.97;1.73;;;;;;;2.95;100.00;95754.78;5053960;28;24818;-74
2022/02/22 00:14:49;;;;;;;9.52;2.17;;;;;;;2.92;100.00;95753.16;5053782;28;24470;-74
2022/02/22 00:17:15;;;;;;;8.02;2.28;;;;;;;2.92;100.00;95759.09;5053454;28;24952;-74
2022/02/22 00:19:42;;;;;;;9.02;2.05;;;;;;;2.97;100.00;95761.53;5053822;28;24796;-73
2022/02/22 00:22:10;;;;;;;6.18;2.00;;;;;;;2.97;100.00;95764.09;5053600;28;24961;-73
2022/02/22 00:24:36;;;;;;;12.43;1.77;;;;;;;2.98;100.00;95763.19;5053597;28;24423;-74
2022/02/22 00:27:03;;;;;;;10.15;2.13;;;;;;;2.89;100.00;95782.25;5053688;28;24801;-72
2022/02/22 00:29:30;;;;;;;4.57;1.58;;;;;;;2.93;100.00;95782.97;5053544;28;24419;-72
2022/02/22 00:31:56;;;;;;;12.38;1.75;;;;;;;2.92;100.00;95776.16;5053407;28;24454;-73
2022/02/22 00:34:22;;;;;;;7.10;1.92;;;;;;;2.91;100.00;95774.50;5053617;28;24477;-73
2022/02/22 00:36:49;;;;;;;10.35;2.20;;;;;;;2.89;100.00;95769.44;5053233;28;25016;-72
2022/02/22 00:39:17;;;;;;;6.85;2.20;;;;;;;2.90;100.00;95768.56;5053390;28;24971;-72
2022/02/22 00:41:43;;;;;;;9.20;2.57;;;;;;;2.89;100.00;95781.38;5053330;28;24419;-73
2022/02/22 00:44:10;;;;;;;9.15;1.80;;;;;;;3.00;100.00;95793.81;5053404;28;24415;-72
2022/02/22 00:46:36;;;;;;;4.85;1.50;;;;;;;2.99;100.00;95793.00;5052873;28;24908;-72
2022/02/22 00:49:03;;;;;;;6.78;2.17;;;;;;;2.97;100.00;95796.50;5053013;28;24797;-73
2022/02/22 00:51:30;;;;;;;7.25;2.17;;;;;;;2.88;100.00;95797.63;5053040;28;24473;-72
2022/02/22 00:53:56;;;;;;;5.00;1.90;;;;;;;2.85;100.00;95797.72;5053325;28;24472;-73
2022/02/22 00:56:24;;;;;;;7.10;1.98;;;;;;;2.84;100.00;95806.28;5052896;28;24442;-72
2022/02/22 00:58:50;;;;;;;5.82;2.03;;;;;;;2.82;100.00;95800.41;5052869;28;24434;-72
2022/02/22 01:01:17;;;;;;;9.65;2.10;;;;;;;2.90;100.00;95808.66;5052629;28;24836;-73
2022/02/22 01:03:44;;;;;;;7.65;1.98;;;;;;;2.92;100.00;95810.25;5052829;28;24461;-73
2022/02/22 01:06:10;;;;;;;8.00;1.90;;;;;;;2.98;100.00;95816.91;5052546;28;24431;-72
2022/02/22 01:08:37;;;;;;;7.63;2.33;;;;;;;2.89;100.00;95820.63;5052783;28;24433;-72
2022/02/22 01:11:03;;;;;;;5.60;2.07;;;;;;;2.94;100.00;95814.50;5052736;28;24964;-73
2022/02/22 01:13:31;;;;;;;8.82;2.20;;;;;;;2.84;100.00;95817.34;5052630;28;24446;-72
2022/02/22 01:15:58;;;;;;;5.53;1.73;;;;;;;2.81;100.00;95824.28;5052793;28;24431;-72
2022/02/22 01:18:24;;;;;;;7.57;2.65;;;;;;;2.75;100.00;95833.00;5052308;28;24419;-72
2022/02/22 01:20:51;;;;;;;6.53;2.10;;;;;;;2.72;100.00;95843.31;5052740;28;24773;-72
2022/02/22 01:23:17;;;;;;;9.43;2.28;;;;;;;2.72;100.00;95847.59;5052685;28;24781;-73
2022/02/22 01:25:44;;;;;;;16.38;2.30;;;;;;;2.63;100.00;95864.91;5052216;28;24439;-72
2022/02/22 01:28:10;;;;;;;5.15;1.40;;;;;;;2.45;100.00;95865.44;5052445;28;24458;-73
2022/02/22 01:30:38;;;;;;;3.40;1.02;;;;;;;2.36;100.00;95879.31;5052419;28;24429;-72
2022/02/22 01:33:05;;;;;;;5.20;1.30;;;;;;;2.21;100.00;95886.59;5052191;28;24528;-72
2022/02/22 01:35:31;;;;;;;5.60;1.45;;;;;;;2.10;100.00;95890.28;5052523;28;24427;-72
2022/02/22 01:37:58;;;;;;;3.92;1.45;;;;;;;2.00;100.00;95893.13;5052452;28;24423;-72
2022/02/22 01:40:26;;;;;;;6.00;1.73;;;;;;;1.93;100.00;95892.47;5052505;28;24423;-73
2022/02/22 01:42:53;;;;;;;5.47;1.80;;;;;;;1.92;100.00;95889.03;5052245;28;24884;-72
2022/02/22 01:45:22;;;;;;;3.75;1.40;;;;;;;1.90;100.00;95887.44;5052058;28;24427;-72
2022/02/22 01:47:49;;;;;;;3.85;1.58;;;;;;;1.87;100.00;95893.44;5051810;28;24477;-73
2022/02/22 01:50:16;;;;;;;4.15;1.77;;;;;;;1.85;100.00;95891.81;5052363;28;24414;-72
2022/02/22 01:52:43;;;;;;;4.33;1.80;;;;;;;1.76;100.00;95904.84;5052163;28;24551;-72
2022/02/22 01:55:10;;;;;;;7.28;2.08;;;;;;;1.80;100.00;95902.16;5051896;28;24485;-72
2022/02/22 01:57:36;;;;;;;6.00;2.10;;;;;;;1.92;100.00;95903.53;5051782;28;24431;-72
2022/02/22 02:00:08;;;;;;;6.50;2.10;;;;;;;1.97;100.00;95909.38;5051764;28;24419;-72
2022/02/22 02:02:35;;;;;;;11.13;2.50;;;;;;;2.00;100.00;95909.28;5051962;28;24523;-73
2022/02/22 02:05:03;;;;;;;8.85;2.63;;;;;;;2.06;100.00;95905.72;5051932;28;24423;-72
2022/02/22 02:07:30;;;;;;;8.52;2.45;;;;;;;2.11;100.00;95901.31;5051626;28;24772;-72
2022/02/22 02:09:56;;;;;;;6.83;2.33;;;;;;;2.11;100.00;95906.44;5051876;28;24418;-72
2022/02/22 02:12:23;;;;;;;13.27;2.72;;;;;;;2.12;100.00;95911.50;5051481;28;24439;-73
2022/02/22 02:14:49;;;;;;;9.82;2.50;;;;;;;2.09;100.00;95913.31;5050441;28;25002;-72
2022/02/22 02:17:16;;;;;;;7.57;2.40;;;;;;;2.10;100.00;95923.47;5051417;28;24418;-72
2022/02/22 02:19:43;;;;;;;8.35;2.50;;;;;;;2.10;100.00;95920.94;5051407;28;24967;-72
2022/02/22 02:22:11;;;;;;;9.48;2.45;;;;;;;2.24;100.00;95912.06;5051497;28;24415;-73
2022/02/22 02:24:37;;;;;;;10.68;2.63;;;;;;;2.23;100.00;95918.06;5051434;28;24461;-72
2022/02/22 02:27:04;;;;;;;5.82;2.03;;;;;;;2.23;100.00;95926.56;5051072;28;24476;-72
2022/02/22 02:29:30;;;;;;;10.83;2.90;;;;;;;2.25;100.00;95919.66;5051370;28;24418;-72
2022/02/22 02:31:58;;;;;;;12.23;2.72;;;;;;;2.25;100.00;95921.38;5051268;28;24415;-72
2022/02/22 02:34:26;;;;;;;6.30;2.08;;;;;;;2.14;100.00;95922.50;5051364;28;24427;-72
2022/02/22 02:36:53;;;;;;;8.03;2.43;;;;;;;2.10;100.00;95915.81;5050992;28;24423;-72
2022/02/22 02:39:21;;;;;;;6.40;2.28;;;;;;;2.12;100.00;95916.63;5051107;28;25199;-72
2022/02/22 02:41:48;;;;;;;7.55;2.22;;;;;;;2.14;100.00;95924.22;5050828;28;24411;-72
2022/02/22 02:44:17;;;;;;;10.43;2.38;;;;;;;2.09;100.00;95923.53;5051128;28;24835;-72
2022/02/22 02:46:44;;;;;;;11.73;2.78;;;;;;;2.06;100.00;95921.06;5050932;28;24423;-72
2022/02/22 02:49:12;;;;;;;10.80;2.42;;;;;;;1.98;100.00;95930.66;5050927;28;24414;-72
2022/02/22 02:51:40;;;;;;;9.10;2.43;;;;;;;1.94;100.00;95940.94;5051077;28;24418;-72
2022/02/22 02:54:07;;;;;;;7.30;1.90;;;;;;;1.92;100.00;95940.13;5050735;28;24489;-72
2022/02/22 02:56:35;;;;;;;6.82;2.13;;;;;;;1.99;100.00;95932.31;5050712;28;24447;-72
2022/02/22 02:59:04;;;;;;;9.80;2.45;;;;;;;2.02;100.00;95948.41;5050696;28;24956;-72
2022/02/22 03:01:32;;;;;;;11.57;2.83;;;;;;;1.99;100.00;95945.09;5050837;28;24502;-73
2022/02/22 03:03:59;;;;;;;5.70;1.83;;;;;;;2.00;100.00;95959.53;5050737;28;24450;-72
2022/02/22 03:06:26;;;;;;;6.65;2.33;;;;;;;2.03;100.00;95957.72;5050552;28;24469;-72
2022/02/22 03:08:53;;;;;;;7.70;2.17;;;;;;;2.06;100.00;95967.88;5050190;28;24781;-72
2022/02/22 03:11:19;;;;;;;8.43;2.53;;;;;;;2.13;100.00;95966.84;5050779;28;24773;-72
2022/02/22 03:13:47;;;;;;;9.13;2.25;;;;;;;2.12;100.00;95970.28;5050553;28;24817;-73
2022/02/22 03:16:14;;;;;;;8.30;2.30;;;;;;;2.11;100.00;95973.72;5050368;28;24426;-72
2022/02/22 03:18:42;;;;;;;5.97;1.95;;;;;;;2.12;100.00;95972.84;5050187;28;24430;-72
2022/02/22 03:21:09;;;;;;;6.15;2.10;;;;;;;2.17;100.00;95977.81;5050630;28;24419;-72
2022/02/22 03:23:36;;;;;;;7.22;2.13;;;;;;;2.13;100.00;95969.41;5050702;28;24410;-73
2022/02/22 03:26:02;;;;;;;8.85;2.30;;;;;;;2.15;100.00;95984.66;5050066;28;24423;-73
2022/02/22 03:28:28;;;;;;;7.65;2.20;;;;;;;2.24;100.00;95988.72;5050327;28;24414;-73
2022/02/22 03:30:56;;;;;;;7.88;2.22;;;;;;;2.18;100.00;95993.09;5050369;28;24417;-72
2022/02/22 03:33:23;;;;;;;10.85;2.28;;;;;;;2.15;100.00;96000.88;5050318;28;24450;-73
2022/02/22 03:35:49;;;;;;;4.93;1.93;;;;;;;2.12;100.00;95987.34;5050026;28;24502;-72
2022/02/22 03:38:16;;;;;;;6.20;2.25;;;;;;;2.14;100.00;96009.38;5049946;28;24477;-72
2022/02/22 03:40:43;;;;;;;6.68;2.45;;;;;;;2.09;100.00;96005.28;5050590;28;24422;-73
2022/02/22 03:43:09;;;;;;;6.53;2.47;;;;;;;2.11;100.00;96012.06;5050237;28;24415;-73
2022/02/22 03:45:36;;;;;;;7.80;2.30;;;;;;;2.13;100.00;96014.56;5050290;28;24422;-72
2022/02/22 03:48:04;;;;;;;7.35;2.35;;;;;;;2.17;100.00;96031.47;5050042;28;24977;-73
2022/02/22 03:50:31;;;;;;;8.50;2.45;;;;;;;2.18;100.00;96033.16;5050152;28;24835;-73
2022/02/22 03:52:57;;;;;;;12.07;3.13;;;;;;;2.21;100.00;96029.69;5050245;28;24500;-73
2022/02/22 03:55:24;;;;;;;7.85;2.53;;;;;;;2.21;100.00;96029.69;5050147;28;24506;-72
2022/02/22 03:57:50;;;;;;;6.53;2.35;;;;;;;2.17;100.00;96034.03;5050036;28;24514;-73
2022/02/22 04:00:19;;;;;;;10.65;2.35;;;;;;;2.23;100.00;96044.09;5050197;28;24416;-73
2022/02/22 04:02:45;;;;;;;12.13;2.50;;;;;;;2.27;100.00;96032.94;5050254;28;24508;-73
2022/02/22 04:05:14;;;;;;;8.98;2.38;;;;;;;2.23;100.00;96038.16;5049746;28;24431;-73
2022/02/22 04:07:40;;;;;;;11.43;2.33;;;;;;;2.22;100.00;96042.41;5049949;28;24426;-72
2022/02/22 04:10:09;;;;;;;8.40;2.40;;;;;;;2.20;100.00;96049.28;5050104;28;24426;-73
2022/02/22 04:12:36;;;;;;;8.00;2.47;;;;;;;2.16;100.00;96045.13;5050003;28;24450;-73
2022/02/22 04:15:03;;;;;;;7.38;2.20;;;;;;;2.18;100.00;96062.09;5049904;28;24430;-73
2022/02/22 04:17:30;;;;;;;8.88;2.60;;;;;;;2.13;100.00;96052.88;5049686;28;24793;-73
2022/02/22 04:19:56;;;;;;;7.53;2.20;;;;;;;2.14;100.00;96063.03;5049762;28;24415;-73
2022/02/22 04:22:24;;;;;;;7.43;2.78;;;;;;;2.13;100.00;96063.09;5050062;28;24415;-72
2022/02/22 04:24:51;;;;;;;7.15;2.53;;;;;;;2.15;100.00;96076.66;5049604;28;24975;-73
2022/02/22 04:27:17;;;;;;;11.20;3.05;;;;;;;2.10;100.00;96073.38;5049746;28;24427;-74
2022/02/22 04:29:44;;;;;;;15.18;3.25;;;;;;;2.09;100.00;96076.81;5049828;28;24425;-73
2022/02/22 04:32:11;;;;;;;8.10;2.58;;;;;;;2.11;100.00;96068.25;5049787;28;24489;-72
2022/02/22 04:34:38;;;;;;;5.53;2.20;;;;;;;2.15;100.00;96069.84;5049558;28;24968;-73
2022/02/22 04:37:05;;;;;;;7.47;2.30;;;;;;;2.14;100.00;96086.03;5050853;28;24515;-73
2022/02/22 04:39:33;;;;;;;12.65;2.75;;;;;;;2.16;100.00;96086.03;5053459;28;24422;-73
2022/02/22 04:41:59;;;;;;;9.52;2.58;;;;;;;2.13;100.00;96097.16;5053181;28;24953;-72
2022/02/22 04:44:26;;;;;;;6.78;2.13;;;;;;;2.10;100.00;96097.22;5053150;28;24424;-72
2022/02/22 04:46:52;;;;;;;8.40;2.42;;;;;;;2.09;100.00;96098.09;5052914;28;24785;-73
2022/02/22 04:49:19;;;;;;;7.68;2.45;;;;;;;2.08;100.00;96104.09;5053319;28;24422;-73
2022/02/22 04:51:46;;;;;;;6.32;2.00;;;;;;;2.08;100.00;96099.00;5053385;28;24419;-73
2022/02/22 04:54:12;;;;;;;9.10;2.67;;;;;;;2.07;100.00;96104.94;5052932;28;24443;-74
2022/02/22 04:56:40;;;;;;;12.82;2.20;;;;;;;2.09;100.00;96107.50;5052895;28;24439;-73
2022/02/22 04:59:06;;;;;;;7.80;2.42;;;;;;;1.98;100.00;96096.69;5052844;28;24419;-73
2022/02/22 05:01:33;;;;;;;7.25;2.40;;;;;;;2.02;100.00;96090.63;5053319;28;24481;-73
2022/02/22 05:03:59;;;;;;;9.48;2.40;;;;;;;2.03;100.00;96093.13;5048976;28;24482;-73
2022/02/22 05:06:26;;;;;;;9.02;2.17;;;;;;;2.06;100.00;96093.06;5052440;28;24980;-72
2022/02/22 05:08:52;;;;;;;6.00;2.38;;;;;;;2.07;100.00;96094.72;5052490;28;24438;-74
2022/02/22 05:11:19;;;;;;;8.43;2.30;;;;;;;1.98;100.00;96104.34;5052662;28;24450;-73
2022/02/22 05:13:47;;;;;;;10.55;2.40;;;;;;;2.00;100.00;96103.41;5052533;28;24886;-73
2022/02/22 05:16:14;;;;;;;8.50;2.33;;;;;;;1.94;100.00;96101.03;5052337;28;24446;-73
2022/02/22 05:18:40;;;;;;;9.32;2.45;;;;;;;2.00;100.00;96105.13;5052613;28;24434;-72
2022/02/22 05:21:07;;;;;;;6.75;2.53;;;;;;;1.93;100.00;96107.84;5052759;28;24415;-73
2022/02/22 05:23:35;;;;;;;21.13;3.03;;;;;;;1.90;100.00;96099.41;5052405;28;24430;-73
2022/02/22 05:26:02;;;;;;;8.77;2.53;;;;;;;1.93;100.00;96112.13;5052317;28;24431;-73
2022/02/22 05:28:29;;;;;;;10.38;2.75;;;;;;;1.84;100.00;96108.06;5051974;28;25020;-73
2022/02/22 05:30:57;;;;;;;9.50;2.60;;;;;;;1.85;100.00;96103.78;5052669;28;24512;-73
2022/02/22 05:33:24;;;;;;;11.63;2.63;;;;;;;1.80;100.00;96111.56;5052582;28;24797;-73
2022/02/22 05:35:52;;;;;;;6.93;2.40;;;;;;;1.80;100.00;96105.63;5052377;28;24820;-72
2022/02/22 05:38:20;;;;;;;11.60;2.85;;;;;;;1.82;100.00;96106.44;5051961;28;24991;-73
2022/02/22 05:40:46;;;;;;;10.82;2.28;;;;;;;1.82;100.00;96109.00;5052310;28;24415;-74
2022/02/22 05:43:12;;;;;;;11.40;2.88;;;;;;;1.79;100.00;96103.94;5051928;28;24431;-74
2022/02/22 05:45:39;;;;;;;9.48;2.72;;;;;;;1.83;100.00;96106.38;5051783;28;24983;-72
2022/02/22 05:48:07;;;;;;;10.37;2.70;;;;;;;1.82;100.00;96109.00;5052085;28;24434;-73
2022/02/22 05:50:34;;;;;;;7.32;2.55;;;;;;;1.85;100.00;96114.00;5052088;28;24529;-73
2022/02/22 05:53:00;;;;;;;8.00;2.42;;;;;;;1.82;100.00;96114.94;5052049;28;24419;-74
2022/02/22 05:55:27;;;;;;;7.70;3.00;;;;;;;1.88;100.00;96112.22;5051866;28;24481;-73
2022/02/22 05:57:54;;;;;;;7.82;2.40;;;;;;;1.86;100.00;96113.97;5051840;28;24932;-74
2022/02/22 06:00:21;;;;;;;10.07;2.90;;;;;;;1.93;100.00;96127.47;5051797;28;24411;-74
2022/02/22 06:02:48;;;;;;;7.82;2.70;;;;;;;1.92;100.00;96126.59;5051854;28;24442;-74
2022/02/22 06:05:16;;;;;;;9.10;2.65;;;;;;;1.94;100.00;96122.28;5050891;28;24457;-72
2022/02/22 06:07:42;;;;;;;12.47;3.00;;;;;;;1.94;100.00;96119.75;5044215;28;25095;-72
2022/02/22 06:10:09;;;;;;;9.77;2.70;;;;;;;1.91;100.00;96124.09;5051318;28;24508;-73
2022/02/22 06:12:35;;;;;;;10.77;2.63;;;;;;;1.94;100.00;96124.84;5051404;28;24418;-73
2022/02/22 06:15:03;;;;;;;10.38;2.60;;;;;;;1.96;100.00;96117.13;5050752;28;24455;-72
2022/02/22 06:17:29;;;;;;;8.23;2.78;;;;;;;1.94;100.00;96111.25;5050804;28;24419;-73
2022/02/22 06:19:57;;;;;;;8.32;2.60;;;;;;;1.96;100.00;96123.97;5051183;28;24465;-73
2022/02/22 06:22:25;;;;;;;20.33;3.05;;;;;;;1.95;100.00;96130.78;5048930;28;24423;-73
2022/02/22 06:24:51;;;;;;;9.98;2.70;;;;;;;1.93;100.00;96135.94;5050362;28;24439;-73
2022/02/22 06:27:17;;;;;;;10.77;3.15;;;;;;;1.97;100.00;96128.22;5050923;28;25041;-73
2022/02/22 06:29:44;;;;;;;7.28;2.72;;;;;;;2.00;100.00;96134.06;5051447;28;24419;-73
2022/02/22 06:32:11;;;;;;;11.20;2.63;;;;;;;1.98;100.00;96143.50;5050933;28;24471;-72
2022/02/22 06:34:38;;;;;;;11.50;3.25;;;;;;;1.97;100.00;96144.38;5050914;28;24447;-73
2022/02/22 06:37:05;;;;;;;10.35;2.40;;;;;;;1.90;100.00;96143.69;5042273;28;24531;-73
2022/02/22 06:39:32;;;;;;;10.18;2.50;;;;;;;1.96;100.00;96140.13;5050033;28;24458;-73
2022/02/22 06:41:59;;;;;;;8.68;3.17;;;;;;;1.97;100.00;96148.66;5043829;28;24438;-71
2022/02/22 06:44:25;;;;;;;8.35;2.95;;;;;;;2.03;100.00;96156.16;5046916;28;24423;-72
2022/02/22 06:46:52;;;;;;;8.82;2.70;;;;;;;1.98;100.00;96151.16;5051131;28;24435;-73
2022/02/22 06:49:18;;;;;;;8.02;2.58;;;;;;;2.06;100.00;96153.53;5050919;28;24844;-72
2022/02/22 06:51:45;;;;;;;10.23;2.63;;;;;;;1.99;100.00;96152.84;5050563;28;25031;-74
2022/02/22 06:54:11;;;;;;;10.20;2.73;;;;;;;2.01;100.00;96161.31;5051008;28;24532;-72
2022/02/22 06:56:39;;;;;;;9.00;2.80;;;;;;;2.08;100.00;96172.25;5050823;28;24439;-73
2022/02/22 06:59:07;;;;;;;12.02;2.83;;;;;;;2.07;100.00;96186.72;5050308;28;24431;-72
2022/02/22 07:01:34;;;;;;;9.38;3.10;;;;;;;2.22;100.00;96190.63;5050516;28;24477;-73
2022/02/22 07:04:00;;;;;;;8.20;2.80;;;;;;;2.16;100.00;96196.72;5050710;28;24430;-73
2022/02/22 07:06:27;;;;;;;8.32;2.80;;;;;;;2.21;100.00;96203.44;5050435;28;24816;-71
2022/02/22 07:08:53;;;;;;;8.50;2.78;;;;;;;2.26;100.00;96211.84;5050633;28;24972;-73
2022/02/22 07:11:20;;;;;;;10.60;2.78;;;;;;;2.25;100.00;96211.00;5050962;28;24420;-73
2022/02/22 07:13:46;;;;;;;10.07;2.50;;;;;;;2.45;100.00;96225.03;5050704;28;24459;-73
2022/02/22 07:16:14;;;;;;;8.67;2.53;;;;;;;2.39;100.00;96228.59;5050607;28;24426;-73
2022/02/22 07:18:40;;;;;;;13.70;3.40;;;;;;;2.47;100.00;96236.91;5050667;28;24451;-73
2022/02/22 07:21:07;;;;;;;10.10;3.13;;;;;;;2.49;100.00;96239.44;5050401;28;24419;-74
2022/02/22 07:23:33;;;;;;;18.92;3.75;;;;;;;2.67;100.00;96244.97;5050710;28;24418;-74
2022/02/22 07:25:59;;;;;;;12.75;3.50;;;;;;;2.64;100.00;96246.75;5050303;28;24493;-74
2022/02/22 07:28:26;;;;;;;10.40;2.95;;;;;;;2.74;100.00;96249.91;5050440;28;24432;-73
2022/02/22 07:30:52;;;;;;;12.50;3.22;;;;;;;2.69;100.00;96255.13;5050535;28;24438;-73
2022/02/22 07:33:20;;;;;;;8.68;2.83;;;;;;;2.87;100.00;96252.13;5050313;28;24434;-74
2022/02/22 07:35:47;;;;;;;9.95;3.03;;;;;;;2.72;100.00;96257.63;5050580;28;24423;-73
2022/02/22 07:38:13;;;;;;;9.55;3.20;;;;;;;2.71;100.00;96255.97;5050376;28;24831;-72
2022/02/22 07:40:40;;;;;;;10.10;3.00;;;;;;;2.80;100.00;96270.22;5050355;28;24434;-73
2022/02/22 07:43:07;;;;;;;11.07;3.35;;;;;;;2.93;100.00;96276.75;5050313;28;24425;-73
2022/02/22 07:45:33;;;;;;;11.40;2.95;;;;;;;2.97;100.00;96272.38;5050265;28;24424;-73
2022/02/22 07:48:02;;;;;;;10.27;3.28;;;;;;;2.92;100.00;96275.03;5050167;28;24423;-73
2022/02/22 07:50:30;;;;;;;10.73;3.20;;;;;;;3.00;100.00;96287.63;5050396;28;24422;-73
2022/02/22 07:52:56;;;;;;;9.07;2.88;;;;;;;2.97;100.00;96288.56;5050579;28;24469;-73
2022/02/22 07:55:23;;;;;;;7.85;2.53;;;;;;;3.14;100.00;96280.47;5050180;28;24455;-73
2022/02/22 07:57:49;;;;;;;7.18;2.58;;;;;;;3.28;100.00;96280.13;5049931;28;24956;-73
2022/02/22 08:00:16;;;;;;;11.18;3.17;;;;;;;3.25;100.00;96293.00;5050066;28;24422;-73
2022/02/22 08:02:42;;;;;;;9.87;2.97;;;;;;;3.31;100.00;96297.97;5049860;28;24419;-73
2022/02/22 08:05:09;;;;;;;9.43;2.75;;;;;;;3.50;100.00;96304.28;5049998;28;24423;-72
2022/02/22 08:07:37;;;;;;;10.20;3.17;;;;;;;3.57;100.00;96307.53;5049876;28;24415;-73
2022/02/22 08:10:05;;;;;;;9.98;3.20;;;;;;;3.47;100.00;96303.50;5050005;28;24416;-72
2022/02/22 08:12:31;;;;;;;12.00;2.85;;;;;;;3.53;100.00;96323.84;5051967;28;24461;-72
2022/02/22 08:14:58;;;;;;;9.77;2.88;;;;;;;3.68;100.00;96327.72;5053653;28;24992;-73
2022/02/22 08:17:24;;;;;;;18.10;3.05;;;;;;;3.63;100.00;96333.81;5053830;28;24520;-73
2022/02/22 08:19:51;;;;;;;9.35;2.60;;;;;;;3.61;100.00;96335.56;5053818;28;24952;-73
2022/02/22 08:22:17;;;;;;;12.30;2.88;;;;;;;3.60;100.00;96341.56;5053712;28;24450;-72
2022/02/22 08:24:45;;;;;;;13.88;2.90;;;;;;;3.54;100.00;96333.22;5053734;28;24419;-72
2022/02/22 08:27:13;;;;;;;8.52;2.90;;;;;;;3.56;100.00;96341.69;5053665;28;24434;-73
2022/02/22 08:29:39;;;;;;;11.23;3.03;;;;;;;3.50;100.00;96346.97;5053636;28;24426;-72
2022/02/22 08:32:06;;;;;;;9.00;2.63;;;;;;;3.56;100.00;96357.91;5053674;28;24831;-73
2022/02/22 08:34:32;;;;;;;10.93;2.72;;;;;;;3.66;100.00;96358.50;5053760;28;24493;-73
2022/02/22 08:36:59;;;;;;;8.50;2.50;;;;;;;3.68;100.00;96368.72;5053723;28;24469;-72
2022/02/22 08:39:25;;;;;;;7.45;2.55;;;;;;;3.66;100.00;96368.72;5053767;28;24427;-73
2022/02/22 08:41:53;;;;;;;10.98;2.83;;;;;;;3.62;100.00;96369.69;5053532;28;25163;-72
2022/02/22 08:44:20;;;;;;;9.40;2.72;;;;;;;3.52;100.00;96370.81;5053532;28;24472;-72
2022/02/22 08:46:46;;;;;;;11.40;3.20;;;;;;;3.55;100.00;96369.00;5052951;28;24828;-73
2022/02/22 08:49:13;;;;;;;17.58;3.20;;;;;;;3.59;100.00;96374.91;5053321;28;24415;-73
2022/02/22 08:51:39;;;;;;;11.13;3.08;;;;;;;3.59;100.00;96370.59;5053455;28;24419;-72
2022/02/22 08:54:08;;;;;;;8.13;2.47;;;;;;;3.69;100.00;96357.56;5053082;28;24980;-73
2022/02/22 08:56:34;;;;;;;9.60;3.00;;;;;;;3.57;100.00;96372.38;5052863;28;24506;-71
2022/02/22 08:59:02;;;;;;;14.43;3.10;;;;;;;3.54;100.00;96376.75;5052864;28;24871;-73
2022/02/22 09:01:28;;;;;;;11.70;2.97;;;;;;;3.61;100.00;96373.97;5053195;28;24449;-73
2022/02/22 09:03:55;;;;;;;12.98;2.95;;;;;;;3.60;100.00;96380.00;5053145;28;24419;-73
2022/02/22 09:06:22;;;;;;;9.55;2.95;;;;;;;3.69;100.00;96370.38;5052866;28;24792;-73
2022/02/22 09:08:49;;;;;;;10.90;3.00;;;;;;;3.66;100.00;96380.72;5052839;28;24427;-73
2022/02/22 09:11:15;;;;;;;7.90;2.67;;;;;;;3.85;100.00;96384.47;5053182;28;24423;-73
2022/02/22 09:13:42;;;;;;;7.55;2.67;;;;;;;3.96;100.00;96371.38;5052940;28;24423;-72
2022/02/22 09:16:10;;;;;;;7.93;2.47;;;;;;;3.95;100.00;96374.81;5052475;28;25170;-72
2022/02/22 09:18:37;;;;;;;8.55;3.03;;;;;;;3.94;100.00;96383.41;5052831;28;24426;-72
2022/02/22 09:21:03;;;;;;;10.10;2.78;;;;;;;3.95;100.00;96378.22;5052653;28;24784;-73
2022/02/22 09:23:29;;;;;;;11.68;2.85;;;;;;;4.01;100.00;96379.78;5089372;23;24820;-77
2022/02/22 09:25:56;;;;;;;11.73;2.90;;;;;;;4.09;100.00;96386.38;5010339;28;24440;-75
2022/02/22 09:28:23;;;;;;;10.07;3.22;;;;;;;4.11;100.00;96378.63;5001493;28;25053;-77
2022/02/22 09:30:49;;;;;;;13.48;2.78;;;;;;;4.13;100.00;96387.13;5012956;28;24432;-75
2022/02/22 09:33:17;;;;;;;9.80;2.88;;;;;;;4.04;100.00;96375.41;5009206;28;24497;-77
2022/02/22 09:35:46;;;;;;;11.60;3.22;;;;;;;4.18;100.00;96369.88;4992900;28;24456;-76
2022/02/22 09:38:13;;;;;;;8.80;3.20;;;;;;;4.29;100.00;96375.56;4992794;28;24458;-76
2022/02/22 09:40:40;;;;;;;11.80;3.42;;;;;;;4.08;100.00;96376.19;4993005;28;24440;-76
2022/02/22 09:43:06;;;;;;;9.68;3.38;;;;;;;4.29;100.00;96377.28;4993038;28;24509;-77
2022/02/22 09:45:33;;;;;;;10.55;3.72;;;;;;;4.04;100.00;96384.81;4988459;28;24430;-76
2022/02/22 09:48:04;;;;;;;20.15;4.22;;;;;;;4.07;100.00;96389.84;4975537;28;24493;-77
2022/02/22 09:50:34;;;;;;;10.43;3.85;;;;;;;4.08;100.00;96389.84;4973418;28;24440;-78
2022/02/22 09:53:01;;;;;;;12.02;4.57;;;;;;;4.26;100.00;96401.28;4973118;28;24429;-78
2022/02/22 09:55:28;;;;;;;12.07;4.43;;;;;;;4.32;100.00;96395.16;4973157;28;24697;-77
2022/02/22 09:57:54;;;;;;;17.15;5.40;;;;;;;4.42;100.00;96394.00;4973120;28;24431;-77
2022/02/22 10:00:23;;;;;;;10.30;3.97;;;;;;;4.49;100.00;96382.69;4973690;28;24430;-76
2022/02/22 10:02:50;;;;;;;12.85;4.13;;;;;;;4.48;100.00;96383.56;4973056;28;24468;-76
2022/02/22 10:05:18;;;;;;;14.98;4.57;;;;;;;4.40;100.00;96387.25;4973022;28;24464;-77
2022/02/22 10:07:48;;;;;;;10.40;3.78;;;;;;;4.47;100.00;96397.28;4972733;28;25233;-75
2022/02/22 10:10:15;;;;;;;12.60;3.78;;;;;;;4.56;100.00;96397.03;4973120;28;24453;-76
2022/02/22 10:12:42;;;;;;;12.60;3.70;;;;;;;4.74;100.00;96392.22;4973026;28;24441;-76
2022/02/22 10:15:10;;;;;;;15.80;3.92;;;;;;;4.85;100.00;96385.88;4972613;28;24461;-75
2022/02/22 10:17:37;;;;;;;14.77;4.03;;;;;;;5.00;100.00;96387.13;4972330;28;24421;-75
2022/02/22 10:20:06;;;;;;;14.77;3.63;;;;;;;5.02;100.00;96385.38;4974849;28;24514;-75
2022/02/22 10:22:33;;;;;;;14.05;3.70;;;;;;;5.00;100.00;96386.28;4985444;28;24440;-75
2022/02/22 10:25:06;;;;;;;10.70;3.83;;;;;;;5.01;100.00;96383.69;4984479;28;24433;-74
2022/02/22 10:27:47;;;;;;;16.00;3.33;;;;;;;4.97;100.00;96382.13;4992227;28;24946;-74
2022/02/22 10:30:37;;;;;;;12.43;3.50;;;;;;;4.98;100.00;96382.94;4982452;28;24436;-74
2022/02/22 10:33:10;;;;;;;13.02;3.55;;;;;;;4.90;100.00;96388.31;4991941;28;24838;-74
2022/02/22 10:35:36;;;;;;;11.65;3.55;;;;;;;4.95;100.00;96376.19;4991352;28;24453;-75
2022/02/22 10:38:12;;;;;;;11.43;3.60;;;;;;;4.97;100.00;96383.81;4992323;28;24479;-75
2022/02/22 10:40:41;;;;;;;10.55;3.08;;;;;;;4.95;100.00;96389.00;4991880;28;24465;-76
2022/02/22 10:43:08;;;;;;;8.15;3.15;;;;;;;4.90;100.00;96385.75;4987761;28;25065;-76
2022/02/22 10:45:35;;;;;;;9.68;3.30;;;;;;;4.87;100.00;96403.81;4991929;28;24459;-75
2022/02/22 10:48:31;;;;;;;10.80;3.33;;;;;;;4.95;100.00;96394.16;4991576;28;24799;-77
2022/02/22 10:50:59;;;;;;;11.73;3.37;;;;;;;5.17;100.00;96403.75;4992157;28;24546;-77
2022/02/22 10:53:31;;;;;;;13.75;3.88;;;;;;;5.33;100.00;96394.66;4992140;28;24545;-76
2022/02/22 10:56:00;;;;;;;14.27;3.47;;;;;;;5.53;100.00;96394.03;4992089;28;24441;-77
2022/02/22 10:58:26;;;;;;;9.55;3.72;;;;;;;5.65;100.00;96387.66;4990763;28;24440;-76
2022/02/22 11:00:53;;;;;;;12.52;3.70;;;;;;;5.56;100.00;96379.34;4987477;28;25036;-76
2022/02/22 11:03:20;;;;;;;14.55;3.47;;;;;;;5.65;100.00;96388.47;4991572;28;24417;-76
2022/02/22 11:05:48;;;;;;;10.27;3.28;;;;;;;5.80;100.00;96385.38;4991384;28;24436;-74
2022/02/22 11:08:15;;;;;;;9.27;3.50;;;;;;;5.83;100.00;96394.72;4991200;28;25274;-75
2022/02/22 11:10:53;;;;;;;10.35;3.03;;;;;;;5.76;100.00;96391.53;4991689;28;24462;-75
2022/02/22 11:13:28;;;;;;;11.90;2.92;;;;;;;5.87;100.00;96388.59;4991379;28;24433;-75
2022/02/22 11:15:54;;;;;;;10.10;3.20;;;;;;;5.83;100.00;96389.59;4991440;28;24456;-76
2022/02/22 11:18:23;;;;;;;8.40;3.58;;;;;;;5.92;100.00;96388.44;4991388;28;24508;-75
2022/02/22 11:20:51;;;;;;;9.03;3.57;;;;;;;5.92;100.00;96389.28;4991468;28;24437;-75
2022/02/22 11:23:26;;;;;;;10.60;3.38;;;;;;;5.92;100.00;96379.00;4991525;28;24420;-76
2022/02/22 11:26:05;;;;;;;14.60;3.38;;;;;;;5.88;100.00;96381.72;4991899;28;24428;-77
2022/02/22 11:28:37;;;;;;;8.40;2.90;;;;;;;5.88;100.00;96371.44;4991537;28;24464;-76